sensor_id;sensor_type;location;lat;lon;timestamp;P1;durP1;ratioP1;P2;durP2;ratioP2
8092;SDS011;4089;52.420;13.334;2023-06-14T00:01:15;29.73;;;3.00;;
8092;SDS011;4089;52.420;13.334;2023-06-14T00:03:43;24.70;;;3.30;;
8092;SDS011;4089;52.420;13.334;2023-06-14T00:06:10;27.70;;;3.10;;
8092;SDS011;4089;52.420;13.334;2023-06-14T00:08:37;28.83;;;3.70;;
8092;SDS011;4089;52.420;13.334;2023-06-14T00:11:04;30.23;;;3.30;;
8092;SDS011;4089;52.420;13.334;2023-06-14T00:13:31;29.27;;;3.20;;
8092;SDS011;4089;52.420;13.334;2023-06-14T00:15:58;27.00;;;2.90;;
8092;SDS011;4089;52.420;13.334;2023-06-14T00:18:25;33.70;;;3.43;;
8092;SDS011;4089;52.420;13.334;2023-06-14T00:20:55;25.93;;;2.80;;
8092;SDS011;4089;52.420;13.334;2023-06-14T00:23:22;26.67;;;3.17;;
8092;SDS011;4089;52.420;13.334;2023-06-14T00:25:49;26.93;;;3.20;;
8092;SDS011;4089;52.420;13.334;2023-06-14T00:28:16;26.37;;;3.00;;
8092;SDS011;4089;52.420;13.334;2023-06-14T00:30:43;24.87;;;2.87;;
8092;SDS011;4089;52.420;13.334;2023-06-14T00:33:12;26.97;;;3.33;;
8092;SDS011;4089;52.420;13.334;2023-06-14T00:35:40;35.60;;;3.57;;
8092;SDS011;4089;52.420;13.334;2023-06-14T00:38:06;25.30;;;2.63;;
8092;SDS011;4089;52.420;13.334;2023-06-14T00:40:33;28.97;;;3.20;;
8092;SDS011;4089;52.420;13.334;2023-06-14T00:43:01;30.50;;;3.00;;
8092;SDS011;4089;52.420;13.334;2023-06-14T00:45:27;36.63;;;3.90;;
8092;SDS011;4089;52.420;13.334;2023-06-14T00:47:54;26.40;;;3.23;;
8092;SDS011;4089;52.420;13.334;2023-06-14T00:50:22;27.10;;;4.00;;
8092;SDS011;4089;52.420;13.334;2023-06-14T00:52:50;28.40;;;4.17;;
8092;SDS011;4089;52.420;13.334;2023-06-14T00:55:17;25.97;;;3.50;;
8092;SDS011;4089;52.420;13.334;2023-06-14T00:57:44;28.20;;;3.93;;
8092;SDS011;4089;52.420;13.334;2023-06-14T01:00:11;27.10;;;3.50;;
8092;SDS011;4089;52.420;13.334;2023-06-14T01:02:39;26.17;;;3.40;;
8092;SDS011;4089;52.420;13.334;2023-06-14T01:05:06;27.50;;;4.17;;
8092;SDS011;4089;52.420;13.334;2023-06-14T01:16:11;30.93;;;4.47;;
8092;SDS011;4089;52.420;13.334;2023-06-14T01:18:38;29.60;;;4.10;;
8092;SDS011;4089;52.420;13.334;2023-06-14T01:21:19;31.17;;;4.70;;
8092;SDS011;4089;52.420;13.334;2023-06-14T01:23:46;30.47;;;4.07;;
8092;SDS011;4089;52.420;13.334;2023-06-14T01:26:20;30.07;;;4.23;;
8092;SDS011;4089;52.420;13.334;2023-06-14T01:28:48;27.20;;;4.73;;
8092;SDS011;4089;52.420;13.334;2023-06-14T01:31:18;29.33;;;4.90;;
8092;SDS011;4089;52.420;13.334;2023-06-14T01:33:49;30.80;;;5.10;;
8092;SDS011;4089;52.420;13.334;2023-06-14T01:36:18;28.40;;;4.67;;
8092;SDS011;4089;52.420;13.334;2023-06-14T01:38:46;27.30;;;4.30;;
8092;SDS011;4089;52.420;13.334;2023-06-14T01:41:16;28.33;;;4.20;;
8092;SDS011;4089;52.420;13.334;2023-06-14T01:43:44;28.03;;;4.70;;
8092;SDS011;4089;52.420;13.334;2023-06-14T01:46:13;27.70;;;4.77;;
8092;SDS011;4089;52.420;13.334;2023-06-14T01:48:42;27.77;;;4.40;;
8092;SDS011;4089;52.420;13.334;2023-06-14T01:51:09;31.17;;;5.27;;
8092;SDS011;4089;52.420;13.334;2023-06-14T01:53:36;28.70;;;4.57;;
8092;SDS011;4089;52.420;13.334;2023-06-14T01:56:03;27.50;;;5.07;;
8092;SDS011;4089;52.420;13.334;2023-06-14T01:58:31;26.93;;;4.97;;
8092;SDS011;4089;52.420;13.334;2023-06-14T02:00:59;30.40;;;5.00;;
8092;SDS011;4089;52.420;13.334;2023-06-14T02:03:27;29.70;;;5.40;;
8092;SDS011;4089;52.420;13.334;2023-06-14T02:05:54;29.43;;;5.87;;
8092;SDS011;4089;52.420;13.334;2023-06-14T02:08:22;28.70;;;5.17;;
8092;SDS011;4089;52.420;13.334;2023-06-14T02:10:49;27.37;;;4.33;;
8092;SDS011;4089;52.420;13.334;2023-06-14T02:13:16;27.20;;;4.77;;
8092;SDS011;4089;52.420;13.334;2023-06-14T02:15:43;31.00;;;5.80;;
8092;SDS011;4089;52.420;13.334;2023-06-14T02:18:11;27.53;;;5.53;;
8092;SDS011;4089;52.420;13.334;2023-06-14T02:20:38;28.60;;;5.03;;
8092;SDS011;4089;52.420;13.334;2023-06-14T02:23:05;27.13;;;5.30;;
8092;SDS011;4089;52.420;13.334;2023-06-14T02:25:34;32.50;;;5.47;;
8092;SDS011;4089;52.420;13.334;2023-06-14T02:28:01;29.20;;;5.23;;
8092;SDS011;4089;52.420;13.334;2023-06-14T02:30:28;33.10;;;6.10;;
8092;SDS011;4089;52.420;13.334;2023-06-14T02:32:55;32.97;;;5.33;;
8092;SDS011;4089;52.420;13.334;2023-06-14T02:35:23;29.13;;;5.43;;
8092;SDS011;4089;52.420;13.334;2023-06-14T02:37:52;27.07;;;4.90;;
8092;SDS011;4089;52.420;13.334;2023-06-14T02:40:19;30.07;;;5.90;;
8092;SDS011;4089;52.420;13.334;2023-06-14T02:42:46;28.57;;;5.93;;
8092;SDS011;4089;52.420;13.334;2023-06-14T02:45:13;31.50;;;6.47;;
8092;SDS011;4089;52.420;13.334;2023-06-14T02:47:41;29.90;;;5.87;;
8092;SDS011;4089;52.420;13.334;2023-06-14T02:50:08;28.00;;;5.30;;
8092;SDS011;4089;52.420;13.334;2023-06-14T02:52:35;31.73;;;6.20;;
8092;SDS011;4089;52.420;13.334;2023-06-14T02:55:03;28.33;;;5.80;;
8092;SDS011;4089;52.420;13.334;2023-06-14T02:57:30;29.00;;;6.40;;
8092;SDS011;4089;52.420;13.334;2023-06-14T02:59:57;28.83;;;6.27;;
8092;SDS011;4089;52.420;13.334;2023-06-14T03:02:24;29.90;;;6.30;;
8092;SDS011;4089;52.420;13.334;2023-06-14T03:04:51;34.70;;;6.10;;
8092;SDS011;4089;52.420;13.334;2023-06-14T03:07:18;28.10;;;5.87;;
8092;SDS011;4089;52.420;13.334;2023-06-14T03:09:48;33.03;;;6.17;;
8092;SDS011;4089;52.420;13.334;2023-06-14T03:12:15;29.97;;;6.80;;
8092;SDS011;4089;52.420;13.334;2023-06-14T03:14:42;31.57;;;6.37;;
8092;SDS011;4089;52.420;13.334;2023-06-14T03:17:09;33.83;;;6.10;;
8092;SDS011;4089;52.420;13.334;2023-06-14T03:19:36;27.07;;;6.47;;
8092;SDS011;4089;52.420;13.334;2023-06-14T03:22:03;32.10;;;6.20;;
8092;SDS011;4089;52.420;13.334;2023-06-14T03:24:31;29.83;;;5.80;;
8092;SDS011;4089;52.420;13.334;2023-06-14T03:27:03;28.60;;;7.00;;
8092;SDS011;4089;52.420;13.334;2023-06-14T03:29:30;32.57;;;6.40;;
8092;SDS011;4089;52.420;13.334;2023-06-14T03:31:58;29.70;;;6.20;;
8092;SDS011;4089;52.420;13.334;2023-06-14T03:34:26;30.93;;;6.00;;
8092;SDS011;4089;52.420;13.334;2023-06-14T03:36:53;29.13;;;6.10;;
8092;SDS011;4089;52.420;13.334;2023-06-14T03:39:20;27.57;;;5.80;;
8092;SDS011;4089;52.420;13.334;2023-06-14T03:41:47;28.00;;;6.23;;
8092;SDS011;4089;52.420;13.334;2023-06-14T03:44:15;30.50;;;7.47;;
8092;SDS011;4089;52.420;13.334;2023-06-14T03:46:44;30.63;;;6.97;;
8092;SDS011;4089;52.420;13.334;2023-06-14T03:49:12;31.10;;;6.20;;
8092;SDS011;4089;52.420;13.334;2023-06-14T03:51:39;31.00;;;6.27;;
8092;SDS011;4089;52.420;13.334;2023-06-14T03:54:06;28.60;;;7.90;;
8092;SDS011;4089;52.420;13.334;2023-06-14T03:56:53;28.53;;;7.67;;
8092;SDS011;4089;52.420;13.334;2023-06-14T03:59:20;28.30;;;6.80;;
8092;SDS011;4089;52.420;13.334;2023-06-14T04:01:47;40.23;;;7.10;;
8092;SDS011;4089;52.420;13.334;2023-06-14T04:04:15;30.40;;;7.47;;
8092;SDS011;4089;52.420;13.334;2023-06-14T04:06:42;28.67;;;8.40;;
8092;SDS011;4089;52.420;13.334;2023-06-14T04:09:09;34.10;;;7.90;;
8092;SDS011;4089;52.420;13.334;2023-06-14T04:11:36;30.13;;;7.17;;
8092;SDS011;4089;52.420;13.334;2023-06-14T04:14:03;31.57;;;7.77;;
8092;SDS011;4089;52.420;13.334;2023-06-14T04:16:30;31.80;;;7.87;;
8092;SDS011;4089;52.420;13.334;2023-06-14T04:18:57;28.50;;;6.97;;
8092;SDS011;4089;52.420;13.334;2023-06-14T04:21:24;52.10;;;7.10;;
8092;SDS011;4089;52.420;13.334;2023-06-14T04:23:54;30.10;;;7.50;;
8092;SDS011;4089;52.420;13.334;2023-06-14T04:26:22;28.00;;;7.83;;
8092;SDS011;4089;52.420;13.334;2023-06-14T04:28:52;29.37;;;7.77;;
8092;SDS011;4089;52.420;13.334;2023-06-14T04:31:23;26.97;;;7.77;;
8092;SDS011;4089;52.420;13.334;2023-06-14T04:33:55;28.00;;;8.17;;
8092;SDS011;4089;52.420;13.334;2023-06-14T04:36:22;28.40;;;8.67;;
8092;SDS011;4089;52.420;13.334;2023-06-14T04:38:49;26.80;;;7.47;;
8092;SDS011;4089;52.420;13.334;2023-06-14T04:41:20;26.07;;;7.40;;
8092;SDS011;4089;52.420;13.334;2023-06-14T04:43:49;27.87;;;7.40;;
8092;SDS011;4089;52.420;13.334;2023-06-14T04:46:16;26.87;;;8.17;;
8092;SDS011;4089;52.420;13.334;2023-06-14T04:48:43;35.30;;;7.67;;
8092;SDS011;4089;52.420;13.334;2023-06-14T04:51:11;29.20;;;7.43;;
8092;SDS011;4089;52.420;13.334;2023-06-14T04:53:39;32.90;;;8.03;;
8092;SDS011;4089;52.420;13.334;2023-06-14T04:56:06;26.43;;;7.70;;
8092;SDS011;4089;52.420;13.334;2023-06-14T04:58:33;35.53;;;8.30;;
8092;SDS011;4089;52.420;13.334;2023-06-14T05:01:00;25.50;;;7.23;;
8092;SDS011;4089;52.420;13.334;2023-06-14T05:03:28;30.00;;;7.40;;
8092;SDS011;4089;52.420;13.334;2023-06-14T05:05:57;26.30;;;7.80;;
8092;SDS011;4089;52.420;13.334;2023-06-14T05:08:23;31.77;;;7.77;;
8092;SDS011;4089;52.420;13.334;2023-06-14T05:10:51;25.90;;;7.00;;
8092;SDS011;4089;52.420;13.334;2023-06-14T05:13:18;32.97;;;7.37;;
8092;SDS011;4089;52.420;13.334;2023-06-14T05:15:45;24.87;;;7.40;;
8092;SDS011;4089;52.420;13.334;2023-06-14T05:18:12;24.50;;;7.13;;
8092;SDS011;4089;52.420;13.334;2023-06-14T05:20:40;25.87;;;6.90;;
8092;SDS011;4089;52.420;13.334;2023-06-14T05:23:08;24.70;;;6.90;;
8092;SDS011;4089;52.420;13.334;2023-06-14T05:25:44;24.70;;;6.10;;
8092;SDS011;4089;52.420;13.334;2023-06-14T05:28:12;25.33;;;6.50;;
8092;SDS011;4089;52.420;13.334;2023-06-14T05:30:38;25.83;;;6.27;;
8092;SDS011;4089;52.420;13.334;2023-06-14T05:33:07;25.20;;;6.80;;
8092;SDS011;4089;52.420;13.334;2023-06-14T05:35:34;24.57;;;6.43;;
8092;SDS011;4089;52.420;13.334;2023-06-14T05:38:01;26.23;;;7.03;;
8092;SDS011;4089;52.420;13.334;2023-06-14T05:40:28;25.63;;;6.20;;
8092;SDS011;4089;52.420;13.334;2023-06-14T05:42:55;30.63;;;7.50;;
8092;SDS011;4089;52.420;13.334;2023-06-14T05:45:22;24.10;;;6.60;;
8092;SDS011;4089;52.420;13.334;2023-06-14T05:47:49;25.73;;;6.10;;
8092;SDS011;4089;52.420;13.334;2023-06-14T05:50:16;25.20;;;6.73;;
8092;SDS011;4089;52.420;13.334;2023-06-14T05:52:43;25.23;;;5.90;;
8092;SDS011;4089;52.420;13.334;2023-06-14T05:55:10;32.20;;;6.80;;
8092;SDS011;4089;52.420;13.334;2023-06-14T05:57:39;27.40;;;7.30;;
8092;SDS011;4089;52.420;13.334;2023-06-14T06:00:07;28.70;;;6.20;;
8092;SDS011;4089;52.420;13.334;2023-06-14T06:02:41;28.77;;;6.33;;
8092;SDS011;4089;52.420;13.334;2023-06-14T06:05:10;33.30;;;6.30;;
8092;SDS011;4089;52.420;13.334;2023-06-14T06:07:37;25.40;;;6.10;;
8092;SDS011;4089;52.420;13.334;2023-06-14T06:10:06;27.70;;;5.97;;
8092;SDS011;4089;52.420;13.334;2023-06-14T06:12:33;25.60;;;6.50;;
8092;SDS011;4089;52.420;13.334;2023-06-14T06:15:00;24.13;;;5.90;;
8092;SDS011;4089;52.420;13.334;2023-06-14T06:17:27;24.40;;;6.30;;
8092;SDS011;4089;52.420;13.334;2023-06-14T06:20:14;32.70;;;6.27;;
8092;SDS011;4089;52.420;13.334;2023-06-14T06:22:41;26.87;;;6.43;;
8092;SDS011;4089;52.420;13.334;2023-06-14T06:25:07;27.63;;;6.20;;
8092;SDS011;4089;52.420;13.334;2023-06-14T06:27:35;26.90;;;6.90;;
8092;SDS011;4089;52.420;13.334;2023-06-14T06:30:04;29.27;;;7.63;;
8092;SDS011;4089;52.420;13.334;2023-06-14T06:32:31;28.90;;;7.40;;
8092;SDS011;4089;52.420;13.334;2023-06-14T06:34:58;32.77;;;7.47;;
8092;SDS011;4089;52.420;13.334;2023-06-14T06:37:26;31.00;;;8.73;;
8092;SDS011;4089;52.420;13.334;2023-06-14T06:39:53;28.77;;;8.40;;
8092;SDS011;4089;52.420;13.334;2023-06-14T06:42:20;27.73;;;7.43;;
8092;SDS011;4089;52.420;13.334;2023-06-14T06:44:47;29.23;;;7.73;;
8092;SDS011;4089;52.420;13.334;2023-06-14T06:47:13;30.40;;;7.77;;
8092;SDS011;4089;52.420;13.334;2023-06-14T06:49:40;26.53;;;7.53;;
8092;SDS011;4089;52.420;13.334;2023-06-14T06:52:07;30.60;;;8.30;;
8092;SDS011;4089;52.420;13.334;2023-06-14T06:54:34;28.80;;;7.80;;
8092;SDS011;4089;52.420;13.334;2023-06-14T06:57:01;28.10;;;7.43;;
8092;SDS011;4089;52.420;13.334;2023-06-14T06:59:30;32.90;;;8.10;;
8092;SDS011;4089;52.420;13.334;2023-06-14T07:01:57;33.33;;;8.20;;
8092;SDS011;4089;52.420;13.334;2023-06-14T07:04:24;34.93;;;8.53;;
8092;SDS011;4089;52.420;13.334;2023-06-14T07:06:51;32.50;;;6.80;;
8092;SDS011;4089;52.420;13.334;2023-06-14T07:09:18;27.40;;;7.90;;
8092;SDS011;4089;52.420;13.334;2023-06-14T07:11:46;32.20;;;7.93;;
8092;SDS011;4089;52.420;13.334;2023-06-14T07:14:13;25.83;;;6.60;;
8092;SDS011;4089;52.420;13.334;2023-06-14T07:16:40;32.50;;;7.17;;
8092;SDS011;4089;52.420;13.334;2023-06-14T07:19:07;27.40;;;7.43;;
8092;SDS011;4089;52.420;13.334;2023-06-14T07:21:35;28.67;;;6.57;;
8092;SDS011;4089;52.420;13.334;2023-06-14T07:24:05;36.20;;;6.37;;
8092;SDS011;4089;52.420;13.334;2023-06-14T07:26:33;35.20;;;6.67;;
8092;SDS011;4089;52.420;13.334;2023-06-14T07:29:00;27.20;;;6.50;;
8092;SDS011;4089;52.420;13.334;2023-06-14T07:31:27;30.47;;;7.03;;
8092;SDS011;4089;52.420;13.334;2023-06-14T07:33:54;28.43;;;6.67;;
8092;SDS011;4089;52.420;13.334;2023-06-14T07:36:21;32.03;;;7.13;;
8092;SDS011;4089;52.420;13.334;2023-06-14T07:38:48;30.17;;;7.70;;
8092;SDS011;4089;52.420;13.334;2023-06-14T07:41:15;28.87;;;6.67;;
8092;SDS011;4089;52.420;13.334;2023-06-14T07:43:42;28.10;;;6.60;;
8092;SDS011;4089;52.420;13.334;2023-06-14T07:46:09;30.90;;;7.07;;
8092;SDS011;4089;52.420;13.334;2023-06-14T07:48:36;28.97;;;6.13;;
8092;SDS011;4089;52.420;13.334;2023-06-14T07:51:03;30.53;;;6.20;;
8092;SDS011;4089;52.420;13.334;2023-06-14T07:53:30;30.60;;;6.63;;
8092;SDS011;4089;52.420;13.334;2023-06-14T07:55:57;25.57;;;5.63;;
8092;SDS011;4089;52.420;13.334;2023-06-14T07:58:24;27.30;;;5.83;;
8092;SDS011;4089;52.420;13.334;2023-06-14T08:00:51;34.90;;;6.60;;
8092;SDS011;4089;52.420;13.334;2023-06-14T08:03:18;30.60;;;7.83;;
8092;SDS011;4089;52.420;13.334;2023-06-14T08:05:46;26.57;;;6.00;;
8092;SDS011;4089;52.420;13.334;2023-06-14T08:08:12;27.60;;;5.53;;
8092;SDS011;4089;52.420;13.334;2023-06-14T08:10:39;40.10;;;6.20;;
8092;SDS011;4089;52.420;13.334;2023-06-14T08:13:06;30.03;;;6.57;;
8092;SDS011;4089;52.420;13.334;2023-06-14T08:15:33;30.37;;;6.00;;
8092;SDS011;4089;52.420;13.334;2023-06-14T08:18:00;29.80;;;6.10;;
8092;SDS011;4089;52.420;13.334;2023-06-14T08:20:27;36.07;;;5.13;;
8092;SDS011;4089;52.420;13.334;2023-06-14T08:22:56;31.20;;;4.93;;
8092;SDS011;4089;52.420;13.334;2023-06-14T08:25:24;26.27;;;5.37;;
8092;SDS011;4089;52.420;13.334;2023-06-14T08:27:51;29.87;;;5.70;;
8092;SDS011;4089;52.420;13.334;2023-06-14T08:30:18;32.43;;;6.17;;
8092;SDS011;4089;52.420;13.334;2023-06-14T08:32:44;26.10;;;4.80;;
8092;SDS011;4089;52.420;13.334;2023-06-14T08:35:16;28.50;;;5.03;;
8092;SDS011;4089;52.420;13.334;2023-06-14T08:37:44;26.80;;;5.70;;
8092;SDS011;4089;52.420;13.334;2023-06-14T08:40:18;28.27;;;5.20;;
8092;SDS011;4089;52.420;13.334;2023-06-14T08:42:50;33.73;;;4.93;;
8092;SDS011;4089;52.420;13.334;2023-06-14T08:45:19;38.73;;;5.50;;
8092;SDS011;4089;52.420;13.334;2023-06-14T08:47:53;29.13;;;5.60;;
8092;SDS011;4089;52.420;13.334;2023-06-14T08:50:24;33.50;;;5.03;;
8092;SDS011;4089;52.420;13.334;2023-06-14T08:53:00;31.30;;;5.27;;
8092;SDS011;4089;52.420;13.334;2023-06-14T08:55:30;26.90;;;5.17;;
8092;SDS011;4089;52.420;13.334;2023-06-14T08:58:00;29.33;;;4.00;;
8092;SDS011;4089;52.420;13.334;2023-06-14T09:00:27;28.47;;;4.27;;
8092;SDS011;4089;52.420;13.334;2023-06-14T09:02:54;30.37;;;4.30;;
8092;SDS011;4089;52.420;13.334;2023-06-14T09:05:25;24.33;;;3.80;;
8092;SDS011;4089;52.420;13.334;2023-06-14T09:07:53;27.67;;;4.03;;
8092;SDS011;4089;52.420;13.334;2023-06-14T09:10:30;29.47;;;4.47;;
8092;SDS011;4089;52.420;13.334;2023-06-14T09:13:00;33.87;;;4.80;;
8092;SDS011;4089;52.420;13.334;2023-06-14T09:15:28;26.43;;;4.33;;
8092;SDS011;4089;52.420;13.334;2023-06-14T09:17:56;27.30;;;4.50;;
8092;SDS011;4089;52.420;13.334;2023-06-14T09:20:24;24.90;;;4.37;;
8092;SDS011;4089;52.420;13.334;2023-06-14T09:22:51;34.90;;;3.70;;
8092;SDS011;4089;52.420;13.334;2023-06-14T09:25:19;31.43;;;4.60;;
8092;SDS011;4089;52.420;13.334;2023-06-14T09:28:06;28.53;;;4.07;;
8092;SDS011;4089;52.420;13.334;2023-06-14T09:30:33;25.40;;;3.43;;
8092;SDS011;4089;52.420;13.334;2023-06-14T09:33:01;28.87;;;3.63;;
8092;SDS011;4089;52.420;13.334;2023-06-14T09:35:30;27.40;;;4.30;;
8092;SDS011;4089;52.420;13.334;2023-06-14T09:37:58;29.40;;;3.93;;
8092;SDS011;4089;52.420;13.334;2023-06-14T09:40:24;30.73;;;4.00;;
8092;SDS011;4089;52.420;13.334;2023-06-14T09:42:52;32.93;;;4.00;;
8092;SDS011;4089;52.420;13.334;2023-06-14T09:45:21;27.70;;;3.83;;
8092;SDS011;4089;52.420;13.334;2023-06-14T09:47:51;29.03;;;4.10;;
8092;SDS011;4089;52.420;13.334;2023-06-14T09:50:32;29.37;;;4.30;;
8092;SDS011;4089;52.420;13.334;2023-06-14T09:53:05;30.20;;;4.67;;
8092;SDS011;4089;52.420;13.334;2023-06-14T09:55:37;33.63;;;4.83;;
8092;SDS011;4089;52.420;13.334;2023-06-14T09:58:07;25.43;;;4.23;;
8092;SDS011;4089;52.420;13.334;2023-06-14T10:00:36;25.80;;;3.37;;
8092;SDS011;4089;52.420;13.334;2023-06-14T10:03:06;31.70;;;3.80;;
8092;SDS011;4089;52.420;13.334;2023-06-14T10:05:37;32.00;;;4.03;;
8092;SDS011;4089;52.420;13.334;2023-06-14T10:08:08;26.40;;;4.07;;
8092;SDS011;4089;52.420;13.334;2023-06-14T10:10:44;25.63;;;3.70;;
8092;SDS011;4089;52.420;13.334;2023-06-14T10:13:12;30.90;;;3.83;;
8092;SDS011;4089;52.420;13.334;2023-06-14T10:18:24;27.30;;;4.20;;
8092;SDS011;4089;52.420;13.334;2023-06-14T10:21:16;27.40;;;4.53;;
8092;SDS011;4089;52.420;13.334;2023-06-14T10:23:43;27.40;;;4.87;;
8092;SDS011;4089;52.420;13.334;2023-06-14T10:26:22;28.90;;;5.83;;
8092;SDS011;4089;52.420;13.334;2023-06-14T10:31:47;29.20;;;5.03;;
8092;SDS011;4089;52.420;13.334;2023-06-14T10:34:22;27.10;;;4.00;;
8092;SDS011;4089;52.420;13.334;2023-06-14T10:39:38;26.63;;;4.63;;
8092;SDS011;4089;52.420;13.334;2023-06-14T10:42:07;28.53;;;3.93;;
8092;SDS011;4089;52.420;13.334;2023-06-14T10:50:16;31.53;;;5.40;;
8092;SDS011;4089;52.420;13.334;2023-06-14T10:52:45;40.40;;;4.73;;
8092;SDS011;4089;52.420;13.334;2023-06-14T10:55:13;29.40;;;3.63;;
8092;SDS011;4089;52.420;13.334;2023-06-14T10:57:49;26.33;;;4.47;;
8092;SDS011;4089;52.420;13.334;2023-06-14T11:00:20;27.87;;;4.10;;
8092;SDS011;4089;52.420;13.334;2023-06-14T11:05:35;25.50;;;4.07;;
8092;SDS011;4089;52.420;13.334;2023-06-14T11:10:59;27.47;;;4.80;;
8092;SDS011;4089;52.420;13.334;2023-06-14T11:13:29;32.47;;;4.60;;
8092;SDS011;4089;52.420;13.334;2023-06-14T11:15:57;28.73;;;4.00;;
8092;SDS011;4089;52.420;13.334;2023-06-14T11:18:24;31.10;;;4.03;;
8092;SDS011;4089;52.420;13.334;2023-06-14T11:20:53;29.70;;;4.77;;
8092;SDS011;4089;52.420;13.334;2023-06-14T11:23:21;31.10;;;4.60;;
8092;SDS011;4089;52.420;13.334;2023-06-14T11:25:52;34.20;;;5.03;;
8092;SDS011;4089;52.420;13.334;2023-06-14T11:28:19;30.87;;;4.20;;
8092;SDS011;4089;52.420;13.334;2023-06-14T11:30:48;28.87;;;4.77;;
8092;SDS011;4089;52.420;13.334;2023-06-14T11:33:25;31.43;;;4.53;;
8092;SDS011;4089;52.420;13.334;2023-06-14T11:35:52;28.23;;;3.80;;
8092;SDS011;4089;52.420;13.334;2023-06-14T11:38:19;26.83;;;4.07;;
8092;SDS011;4089;52.420;13.334;2023-06-14T11:40:46;38.27;;;4.17;;
8092;SDS011;4089;52.420;13.334;2023-06-14T11:43:13;27.50;;;3.27;;
8092;SDS011;4089;52.420;13.334;2023-06-14T11:45:40;27.50;;;3.93;;
8092;SDS011;4089;52.420;13.334;2023-06-14T11:48:07;33.27;;;4.23;;
8092;SDS011;4089;52.420;13.334;2023-06-14T11:50:37;40.73;;;5.00;;
8092;SDS011;4089;52.420;13.334;2023-06-14T11:53:04;34.00;;;4.30;;
8092;SDS011;4089;52.420;13.334;2023-06-14T11:55:37;31.20;;;4.80;;
8092;SDS011;4089;52.420;13.334;2023-06-14T11:58:05;30.67;;;3.70;;
8092;SDS011;4089;52.420;13.334;2023-06-14T12:00:35;28.60;;;3.30;;
8092;SDS011;4089;52.420;13.334;2023-06-14T12:03:02;34.03;;;4.60;;
8092;SDS011;4089;52.420;13.334;2023-06-14T12:05:29;29.23;;;3.80;;
8092;SDS011;4089;52.420;13.334;2023-06-14T12:08:00;30.37;;;4.33;;
8092;SDS011;4089;52.420;13.334;2023-06-14T12:10:29;32.23;;;3.70;;
8092;SDS011;4089;52.420;13.334;2023-06-14T12:12:57;31.80;;;4.07;;
8092;SDS011;4089;52.420;13.334;2023-06-14T12:15:27;31.50;;;3.77;;
8092;SDS011;4089;52.420;13.334;2023-06-14T12:17:56;28.37;;;4.17;;
8092;SDS011;4089;52.420;13.334;2023-06-14T12:20:28;31.53;;;4.10;;
8092;SDS011;4089;52.420;13.334;2023-06-14T12:25:50;28.47;;;3.47;;
8092;SDS011;4089;52.420;13.334;2023-06-14T12:28:18;30.13;;;3.77;;
8092;SDS011;4089;52.420;13.334;2023-06-14T12:30:45;32.70;;;4.90;;
8092;SDS011;4089;52.420;13.334;2023-06-14T12:33:12;32.80;;;3.73;;
8092;SDS011;4089;52.420;13.334;2023-06-14T12:35:39;26.43;;;3.67;;
8092;SDS011;4089;52.420;13.334;2023-06-14T12:38:06;29.83;;;4.53;;
8092;SDS011;4089;52.420;13.334;2023-06-14T12:40:33;31.40;;;4.10;;
8092;SDS011;4089;52.420;13.334;2023-06-14T12:43:04;29.50;;;4.40;;
8092;SDS011;4089;52.420;13.334;2023-06-14T12:45:30;30.40;;;3.80;;
8092;SDS011;4089;52.420;13.334;2023-06-14T12:47:57;34.63;;;4.23;;
8092;SDS011;4089;52.420;13.334;2023-06-14T12:50:24;28.70;;;4.40;;
8092;SDS011;4089;52.420;13.334;2023-06-14T12:52:52;31.93;;;4.47;;
8092;SDS011;4089;52.420;13.334;2023-06-14T12:55:19;30.30;;;3.97;;
8092;SDS011;4089;52.420;13.334;2023-06-14T12:57:46;33.23;;;3.93;;
8092;SDS011;4089;52.420;13.334;2023-06-14T13:00:15;27.53;;;3.97;;
8092;SDS011;4089;52.420;13.334;2023-06-14T13:02:44;30.00;;;4.10;;
8092;SDS011;4089;52.420;13.334;2023-06-14T13:05:11;28.60;;;4.00;;
8092;SDS011;4089;52.420;13.334;2023-06-14T13:07:37;35.37;;;4.30;;
8092;SDS011;4089;52.420;13.334;2023-06-14T13:10:04;37.60;;;4.50;;
8092;SDS011;4089;52.420;13.334;2023-06-14T13:12:31;30.00;;;4.70;;
8092;SDS011;4089;52.420;13.334;2023-06-14T13:14:58;30.80;;;4.20;;
8092;SDS011;4089;52.420;13.334;2023-06-14T13:17:25;28.90;;;3.70;;
8092;SDS011;4089;52.420;13.334;2023-06-14T13:19:52;33.93;;;4.20;;
8092;SDS011;4089;52.420;13.334;2023-06-14T13:22:19;30.20;;;4.83;;
8092;SDS011;4089;52.420;13.334;2023-06-14T13:24:46;30.73;;;3.90;;
8092;SDS011;4089;52.420;13.334;2023-06-14T13:27:14;36.30;;;3.93;;
8092;SDS011;4089;52.420;13.334;2023-06-14T13:29:41;35.30;;;4.70;;
8092;SDS011;4089;52.420;13.334;2023-06-14T13:32:08;27.37;;;4.00;;
8092;SDS011;4089;52.420;13.334;2023-06-14T13:34:35;33.17;;;3.63;;
8092;SDS011;4089;52.420;13.334;2023-06-14T13:37:02;29.20;;;3.70;;
8092;SDS011;4089;52.420;13.334;2023-06-14T13:39:29;45.80;;;4.30;;
8092;SDS011;4089;52.420;13.334;2023-06-14T13:41:55;33.23;;;3.70;;
8092;SDS011;4089;52.420;13.334;2023-06-14T13:44:22;34.80;;;4.70;;
8092;SDS011;4089;52.420;13.334;2023-06-14T13:47:08;35.73;;;3.87;;
8092;SDS011;4089;52.420;13.334;2023-06-14T13:49:52;31.70;;;4.70;;
8092;SDS011;4089;52.420;13.334;2023-06-14T13:52:37;31.77;;;3.80;;
8092;SDS011;4089;52.420;13.334;2023-06-14T13:55:22;28.80;;;3.87;;
8092;SDS011;4089;52.420;13.334;2023-06-14T13:58:07;31.70;;;3.90;;
8092;SDS011;4089;52.420;13.334;2023-06-14T14:00:51;32.53;;;3.93;;
8092;SDS011;4089;52.420;13.334;2023-06-14T14:03:36;34.33;;;4.00;;
8092;SDS011;4089;52.420;13.334;2023-06-14T14:06:21;31.00;;;4.00;;
8092;SDS011;4089;52.420;13.334;2023-06-14T14:09:06;30.63;;;4.30;;
8092;SDS011;4089;52.420;13.334;2023-06-14T14:11:53;30.57;;;3.73;;
8092;SDS011;4089;52.420;13.334;2023-06-14T14:14:37;32.27;;;3.70;;
8092;SDS011;4089;52.420;13.334;2023-06-14T14:17:21;37.53;;;4.50;;
8092;SDS011;4089;52.420;13.334;2023-06-14T14:20:07;31.37;;;3.90;;
8092;SDS011;4089;52.420;13.334;2023-06-14T14:22:51;38.03;;;4.00;;
8092;SDS011;4089;52.420;13.334;2023-06-14T14:25:35;32.63;;;4.20;;
8092;SDS011;4089;52.420;13.334;2023-06-14T14:28:19;41.30;;;4.50;;
8092;SDS011;4089;52.420;13.334;2023-06-14T14:30:51;34.20;;;4.43;;
8092;SDS011;4089;52.420;13.334;2023-06-14T14:33:19;30.07;;;4.13;;
8092;SDS011;4089;52.420;13.334;2023-06-14T14:35:46;34.20;;;4.37;;
8092;SDS011;4089;52.420;13.334;2023-06-14T14:38:14;29.17;;;3.67;;
8092;SDS011;4089;52.420;13.334;2023-06-14T14:40:44;45.13;;;3.87;;
8092;SDS011;4089;52.420;13.334;2023-06-14T14:43:11;30.17;;;4.10;;
8092;SDS011;4089;52.420;13.334;2023-06-14T14:45:38;29.33;;;3.57;;
8092;SDS011;4089;52.420;13.334;2023-06-14T14:48:05;33.30;;;4.47;;
8092;SDS011;4089;52.420;13.334;2023-06-14T14:50:32;28.10;;;3.57;;
8092;SDS011;4089;52.420;13.334;2023-06-14T14:52:59;37.60;;;4.00;;
8092;SDS011;4089;52.420;13.334;2023-06-14T14:55:26;31.20;;;4.37;;
8092;SDS011;4089;52.420;13.334;2023-06-14T14:57:53;30.90;;;5.00;;
8092;SDS011;4089;52.420;13.334;2023-06-14T15:00:20;37.50;;;3.93;;
8092;SDS011;4089;52.420;13.334;2023-06-14T15:02:47;38.23;;;4.03;;
8092;SDS011;4089;52.420;13.334;2023-06-14T15:05:14;30.07;;;3.63;;
8092;SDS011;4089;52.420;13.334;2023-06-14T15:07:41;32.30;;;4.40;;
8092;SDS011;4089;52.420;13.334;2023-06-14T15:10:08;32.43;;;3.80;;
8092;SDS011;4089;52.420;13.334;2023-06-14T15:12:35;27.80;;;3.83;;
8092;SDS011;4089;52.420;13.334;2023-06-14T15:15:02;29.20;;;3.50;;
8092;SDS011;4089;52.420;13.334;2023-06-14T15:17:29;31.33;;;4.00;;
8092;SDS011;4089;52.420;13.334;2023-06-14T15:19:56;30.33;;;3.43;;
8092;SDS011;4089;52.420;13.334;2023-06-14T15:22:23;33.80;;;3.93;;
8092;SDS011;4089;52.420;13.334;2023-06-14T15:24:50;37.77;;;4.37;;
8092;SDS011;4089;52.420;13.334;2023-06-14T15:27:17;32.73;;;3.40;;
8092;SDS011;4089;52.420;13.334;2023-06-14T15:29:44;37.37;;;4.43;;